Time;durP1;ratioP1;P1;durP2;ratioP2;P2;SDS_P1;SDS_P2;PMS_P1;PMS_P2;Temp;Humidity;BMP_temperature;BMP_pressure;BME280_temperature;BME280_humidity;BME280_pressure;Samples;Min_cycle;Max_cycle;Signal;HPM_P1;HPM_P2
2023/04/23 00:01:16;;;;;;;18.55;5.72;;;14.50;99.90;;;;;;5072045;28;20033;-75
2023/04/23 00:03:42;;;;;;;13.55;4.70;;;14.50;99.90;;;;;;5071168;28;20032;-75
2023/04/23 00:06:09;;;;;;;15.00;5.22;;;14.60;99.90;;;;;;5055014;28;20043;-75
2023/04/23 00:08:42;;;;;;;13.43;4.78;;;14.70;99.90;;;;;;5072161;28;20075;-76
2023/04/23 00:11:08;;;;;;;15.02;5.18;;;14.70;99.90;;;;;;5069045;28;20033;-75
2023/04/23 00:13:35;;;;;;;12.82;4.68;;;14.70;99.90;;;;;;5070254;28;20036;-75
2023/04/23 00:16:01;;;;;;;16.75;4.93;;;14.80;99.90;;;;;;5072736;28;20040;-75
2023/04/23 00:18:28;;;;;;;15.05;5.10;;;14.70;99.90;;;;;;5054018;28;20051;-75
2023/04/23 00:20:54;;;;;;;14.30;4.93;;;14.70;99.90;;;;;;5073280;28;20032;-75
2023/04/23 00:23:20;;;;;;;14.35;4.95;;;14.70;99.90;;;;;;5069720;28;20051;-76
2023/04/23 00:25:46;;;;;;;15.75;4.40;;;14.60;99.90;;;;;;5037245;28;20048;-75
2023/04/23 00:28:12;;;;;;;10.98;4.35;;;14.50;99.90;;;;;;5070632;28;20039;-75
2023/04/23 00:30:38;;;;;;;11.57;4.40;;;14.60;99.90;;;;;;5071725;28;20036;-75
2023/04/23 00:33:05;;;;;;;11.05;4.15;;;14.50;99.90;;;;;;5071523;28;20063;-75
2023/04/23 00:35:31;;;;;;;9.43;4.32;;;14.50;99.90;;;;;;5072425;28;20045;-74
2023/04/23 00:37:57;;;;;;;12.15;4.68;;;14.40;99.90;;;;;;5069567;28;20178;-76
2023/04/23 00:40:23;;;;;;;12.90;4.28;;;14.40;99.90;;;;;;5071762;28;20048;-75
2023/04/23 00:42:51;;;;;;;16.85;4.70;;;14.30;99.90;;;;;;5071385;28;20051;-75
2023/04/23 00:45:17;;;;;;;12.57;4.43;;;14.30;99.90;;;;;;5070312;28;20049;-76
2023/04/23 00:47:43;;;;;;;10.80;4.30;;;14.30;99.90;;;;;;5071065;28;20387;-75
2023/04/23 00:50:09;;;;;;;9.02;3.95;;;14.40;99.90;;;;;;5071724;28;20028;-75
2023/04/23 00:52:35;;;;;;;13.50;4.03;;;14.50;99.90;;;;;;5069773;28;20047;-75
2023/04/23 00:55:02;;;;;;;14.65;4.57;;;14.40;99.90;;;;;;5070138;28;20048;-75
2023/04/23 00:57:28;;;;;;;11.32;4.63;;;14.40;99.90;;;;;;5070086;28;20043;-75
2023/04/23 00:59:57;;;;;;;15.88;4.40;;;14.50;99.90;;;;;;5070583;28;20419;-75
2023/04/23 01:02:23;;;;;;;12.95;4.15;;;14.50;99.90;;;;;;5070235;28;20027;-75
2023/04/23 01:04:53;;;;;;;13.65;4.55;;;14.50;99.90;;;;;;5070019;28;20043;-75
2023/04/23 01:07:20;;;;;;;7.97;3.67;;;14.50;99.90;;;;;;5053762;28;20027;-75
2023/04/23 01:09:47;;;;;;;10.88;4.50;;;14.60;99.90;;;;;;5070509;28;20467;-75
2023/04/23 01:12:13;;;;;;;9.75;4.40;;;14.60;99.90;;;;;;5039733;28;20482;-74
2023/04/23 01:14:39;;;;;;;11.68;4.47;;;14.70;99.90;;;;;;5072055;28;20028;-75
2023/04/23 01:17:07;;;;;;;16.63;4.25;;;14.70;99.90;;;;;;5053153;28;20059;-75
2023/04/23 01:19:33;;;;;;;17.50;4.40;;;14.70;99.90;;;;;;5070606;28;20047;-74
2023/04/23 01:22:00;;;;;;;11.35;4.60;;;14.70;99.90;;;;;;5071306;28;20036;-75
2023/04/23 01:24:29;;;;;;;13.38;4.40;;;14.70;99.90;;;;;;5069498;28;20037;-76
2023/04/23 01:26:57;;;;;;;14.68;4.25;;;14.60;99.90;;;;;;5069100;28;20044;-74
2023/04/23 01:29:23;;;;;;;10.13;4.10;;;14.70;99.90;;;;;;5071356;28;20040;-75
2023/04/23 01:31:49;;;;;;;11.48;4.32;;;14.70;99.90;;;;;;5070876;28;20446;-75
2023/04/23 01:34:16;;;;;;;13.32;3.90;;;14.70;99.90;;;;;;5068520;28;20047;-74
2023/04/23 01:36:42;;;;;;;11.13;4.30;;;14.70;99.90;;;;;;5070970;28;20059;-75
2023/04/23 01:39:08;;;;;;;15.82;4.63;;;14.70;99.90;;;;;;5069879;28;20041;-75
2023/04/23 01:41:34;;;;;;;10.93;4.75;;;14.60;99.90;;;;;;5071227;28;20115;-74
2023/04/23 01:44:00;;;;;;;8.77;4.38;;;14.50;99.90;;;;;;5068808;28;20045;-76
2023/04/23 01:46:27;;;;;;;16.02;4.35;;;14.40;99.90;;;;;;5067998;28;20052;-76
2023/04/23 01:48:53;;;;;;;9.93;4.18;;;14.50;99.90;;;;;;5070561;28;20039;-75
2023/04/23 01:51:19;;;;;;;13.48;4.47;;;14.60;99.90;;;;;;5053662;28;20059;-76
2023/04/23 01:53:45;;;;;;;11.73;4.50;;;14.60;99.90;;;;;;5030662;28;20049;-75
2023/04/23 01:56:12;;;;;;;11.98;4.65;;;14.60;99.90;;;;;;5064085;28;20043;-74
2023/04/23 01:58:38;;;;;;;11.30;4.63;;;14.60;99.90;;;;;;5053072;28;20464;-75
2023/04/23 02:01:04;;;;;;;11.23;5.00;;;14.60;99.90;;;;;;5069953;28;20036;-75
2023/04/23 02:03:32;;;;;;;15.68;4.60;;;14.50;99.90;;;;;;5066437;28;20036;-75
2023/04/23 02:05:59;;;;;;;6.80;4.03;;;14.40;99.90;;;;;;5061594;28;20029;-76
2023/04/23 02:08:26;;;;;;;10.27;4.50;;;14.40;99.90;;;;;;5062245;28;20040;-76
2023/04/23 02:10:52;;;;;;;9.75;4.53;;;14.40;99.90;;;;;;5073220;28;20032;-76
2023/04/23 02:13:18;;;;;;;10.75;4.55;;;14.40;99.90;;;;;;5072490;28;20044;-75
2023/04/23 02:15:44;;;;;;;14.75;4.53;;;14.50;99.90;;;;;;5073017;28;20052;-75
2023/04/23 02:18:11;;;;;;;11.80;4.20;;;14.40;99.90;;;;;;5072575;28;20033;-76
2023/04/23 02:20:39;;;;;;;11.38;4.70;;;14.40;99.90;;;;;;5071168;28;20044;-76
2023/04/23 02:23:06;;;;;;;12.35;4.68;;;14.50;99.90;;;;;;5068791;28;20056;-76
2023/04/23 02:25:33;;;;;;;8.27;4.38;;;14.40;99.90;;;;;;5072798;28;20021;-75
2023/04/23 02:28:00;;;;;;;11.90;4.03;;;14.40;99.90;;;;;;5071877;28;20032;-76
2023/04/23 02:30:26;;;;;;;12.57;4.47;;;14.40;99.90;;;;;;5071977;28;20037;-76
2023/04/23 02:32:52;;;;;;;10.27;4.53;;;14.40;99.90;;;;;;5071411;28;20497;-75
2023/04/23 02:35:18;;;;;;;8.80;5.15;;;14.40;99.90;;;;;;5073280;28;20095;-76
2023/04/23 02:37:44;;;;;;;10.98;4.63;;;14.40;99.90;;;;;;5074128;28;20406;-74
2023/04/23 02:40:11;;;;;;;10.98;4.63;;;14.30;99.90;;;;;;5074267;28;20036;-74
2023/04/23 02:42:37;;;;;;;11.07;4.60;;;14.40;99.90;;;;;;5074183;28;20024;-75
2023/04/23 02:45:03;;;;;;;8.73;4.35;;;14.30;99.90;;;;;;5071140;28;20043;-75
2023/04/23 02:47:30;;;;;;;7.50;4.47;;;14.30;99.90;;;;;;5073160;28;20498;-75
2023/04/23 02:49:57;;;;;;;13.75;6.68;;;14.30;99.90;;;;;;5074846;28;20032;-75
2023/04/23 02:52:23;;;;;;;19.42;14.75;;;14.40;99.90;;;;;;5074222;28;20059;-75
2023/04/23 02:54:49;;;;;;;30.77;19.17;;;14.30;99.90;;;;;;5072490;28;20026;-75
2023/04/23 02:57:15;;;;;;;31.83;19.75;;;14.30;99.90;;;;;;5073735;28;20047;-75
2023/04/23 02:59:41;;;;;;;44.85;24.20;;;14.30;99.90;;;;;;5073895;28;20051;-76
2023/04/23 03:02:07;;;;;;;36.75;23.05;;;14.30;99.90;;;;;;5072319;28;20506;-76
2023/04/23 03:04:34;;;;;;;35.25;21.90;;;14.30;99.90;;;;;;5055908;28;20063;-75
2023/04/23 03:07:00;;;;;;;30.73;18.27;;;14.30;99.90;;;;;;5073386;28;20043;-75
2023/04/23 03:09:26;;;;;;;26.70;14.73;;;14.20;99.90;;;;;;5072159;28;20039;-76
2023/04/23 03:11:52;;;;;;;21.10;11.90;;;14.10;99.90;;;;;;5073021;28;20398;-76
2023/04/23 03:14:18;;;;;;;18.85;8.68;;;14.10;99.90;;;;;;5073709;28;20475;-75
2023/04/23 03:16:44;;;;;;;17.42;8.05;;;14.10;99.90;;;;;;5071608;28;20029;-75
2023/04/23 03:19:10;;;;;;;11.13;6.47;;;14.00;99.90;;;;;;5071545;28;20130;-75
2023/04/23 03:21:36;;;;;;;14.30;6.75;;;14.00;99.90;;;;;;5073736;28;20032;-75
2023/04/23 03:24:03;;;;;;;11.60;6.43;;;13.80;99.90;;;;;;5073811;28;20060;-75
2023/04/23 03:26:29;;;;;;;14.70;6.03;;;13.90;99.90;;;;;;5072714;28;20032;-75
2023/04/23 03:28:55;;;;;;;15.73;6.25;;;14.00;99.90;;;;;;5073284;28;20048;-74
2023/04/23 03:31:21;;;;;;;15.07;6.10;;;14.00;99.90;;;;;;5072102;28;20395;-74
2023/04/23 03:33:47;;;;;;;12.68;5.85;;;13.90;99.90;;;;;;5055137;28;20044;-74
2023/04/23 03:36:14;;;;;;;12.05;4.88;;;13.80;99.90;;;;;;5072034;28;20033;-75
2023/04/23 03:38:40;;;;;;;11.52;4.75;;;13.70;99.90;;;;;;5072871;28;20047;-75
2023/04/23 03:41:06;;;;;;;8.23;4.20;;;13.50;99.90;;;;;;5073131;28;20033;-75
2023/04/23 03:43:32;;;;;;;8.95;4.40;;;13.50;99.90;;;;;;5073025;28;20028;-74
2023/04/23 03:45:58;;;;;;;12.13;4.70;;;13.60;99.90;;;;;;5073246;28;20039;-75
2023/04/23 03:48:25;;;;;;;11.52;5.05;;;13.60;99.90;;;;;;5072382;28;20092;-75
2023/04/23 03:50:51;;;;;;;8.52;4.72;;;13.70;99.90;;;;;;5054227;28;20032;-74
2023/04/23 03:53:17;;;;;;;9.63;4.50;;;13.60;99.90;;;;;;5072783;28;20059;-75
2023/04/23 03:55:43;;;;;;;8.27;4.60;;;13.50;99.90;;;;;;5071810;28;20028;-75
2023/04/23 03:58:09;;;;;;;8.07;4.45;;;13.70;99.90;;;;;;5054428;28;20056;-75
2023/04/23 04:00:35;;;;;;;9.95;4.53;;;13.60;99.90;;;;;;5072578;28;20391;-75
2023/04/23 04:03:01;;;;;;;6.45;4.55;;;13.50;99.90;;;;;;5070235;28;20039;-75
2023/04/23 04:05:28;;;;;;;6.75;4.63;;;13.40;99.90;;;;;;5072806;28;20025;-75
2023/04/23 04:07:54;;;;;;;7.45;4.57;;;13.30;99.90;;;;;;5071668;28;20036;-75
2023/04/23 04:10:20;;;;;;;10.18;4.35;;;13.40;99.90;;;;;;5074058;28;20051;-75
2023/04/23 04:12:47;;;;;;;6.35;4.32;;;13.30;99.90;;;;;;5070581;28;20024;-75
2023/04/23 04:15:14;;;;;;;8.35;4.63;;;13.30;99.90;;;;;;5070683;28;20040;-74
2023/04/23 04:17:40;;;;;;;9.60;4.05;;;13.30;99.90;;;;;;5054956;28;20379;-74
2023/04/23 04:20:07;;;;;;;11.15;4.35;;;13.40;99.90;;;;;;5072474;28;20048;-75
2023/04/23 04:22:33;;;;;;;6.25;4.10;;;13.40;99.90;;;;;;5070367;28;20035;-75
2023/04/23 04:24:59;;;;;;;6.15;4.10;;;13.40;99.90;;;;;;5054776;28;20047;-75
2023/04/23 04:27:26;;;;;;;7.53;4.35;;;13.40;99.90;;;;;;5072195;28;20414;-74
2023/04/23 04:29:52;;;;;;;7.45;4.35;;;13.30;99.90;;;;;;5071098;28;20047;-74
2023/04/23 04:32:18;;;;;;;6.32;4.18;;;13.30;99.90;;;;;;5068682;28;20029;-75
2023/04/23 04:34:44;;;;;;;7.47;4.40;;;13.40;99.90;;;;;;5072383;28;20037;-74
2023/04/23 04:37:10;;;;;;;9.32;4.13;;;13.40;99.90;;;;;;5070092;28;20494;-74
2023/04/23 04:39:36;;;;;;;5.93;3.83;;;13.40;99.90;;;;;;5054406;28;20414;-74
2023/04/23 04:42:05;;;;;;;6.95;4.45;;;13.40;99.90;;;;;;5069338;28;20044;-75
2023/04/23 04:44:31;;;;;;;7.85;4.55;;;13.40;99.90;;;;;;5076955;28;20024;-75
2023/04/23 04:46:57;;;;;;;7.97;5.18;;;13.50;99.90;;;;;;5067796;28;20033;-75
2023/04/23 04:49:23;;;;;;;9.13;5.30;;;13.50;99.90;;;;;;5065062;28;20059;-75
2023/04/23 04:51:50;;;;;;;9.38;5.43;;;13.40;99.90;;;;;;5069918;28;20048;-75
2023/04/23 04:54:16;;;;;;;7.55;4.38;;;13.40;99.90;;;;;;5070823;28;20036;-74
2023/04/23 04:56:42;;;;;;;10.02;4.65;;;13.40;99.90;;;;;;5070825;28;20399;-75
2023/04/23 04:59:08;;;;;;;8.50;4.90;;;13.40;99.90;;;;;;5072179;28;20032;-75
2023/04/23 05:01:34;;;;;;;8.15;4.53;;;13.30;99.90;;;;;;5069790;28;20475;-75
2023/04/23 05:04:01;;;;;;;8.82;4.70;;;13.20;99.90;;;;;;5071138;28;20032;-75
2023/04/23 05:06:28;;;;;;;8.32;5.20;;;13.20;99.90;;;;;;5061803;28;20029;-76
2023/04/23 05:08:54;;;;;;;7.93;4.95;;;13.10;99.90;;;;;;5069086;28;20033;-74
2023/04/23 05:11:20;;;;;;;8.77;5.85;;;13.10;99.90;;;;;;5069689;28;20029;-76
2023/04/23 05:13:46;;;;;;;7.20;5.30;;;13.10;99.90;;;;;;5071904;28;20348;-76
2023/04/23 05:16:12;;;;;;;8.82;4.90;;;13.10;99.90;;;;;;5052768;28;20056;-75
2023/04/23 05:18:39;;;;;;;6.65;5.15;;;13.10;99.90;;;;;;5062174;28;20035;-75
2023/04/23 05:21:05;;;;;;;7.80;5.25;;;13.00;99.90;;;;;;5061571;28;20514;-75
2023/04/23 05:23:32;;;;;;;5.97;4.03;;;13.10;99.90;;;;;;5053217;28;20054;-74
2023/04/23 05:25:58;;;;;;;6.35;5.13;;;13.00;99.90;;;;;;5053312;28;20036;-75
2023/04/23 05:28:24;;;;;;;6.88;4.95;;;12.90;99.90;;;;;;5071890;28;20043;-75
2023/04/23 05:30:51;;;;;;;7.18;4.32;;;12.80;99.90;;;;;;5070690;28;20025;-74
2023/04/23 05:33:17;;;;;;;8.32;4.97;;;12.60;99.90;;;;;;5068670;28;20461;-75
2023/04/23 05:35:43;;;;;;;5.97;4.70;;;12.60;99.90;;;;;;5072145;28;20435;-75
2023/04/23 05:38:09;;;;;;;7.75;5.20;;;12.50;99.90;;;;;;5053244;28;20043;-75
2023/04/23 05:40:35;;;;;;;8.48;5.10;;;12.50;99.90;;;;;;5071503;28;20427;-75
2023/04/23 05:43:01;;;;;;;8.23;4.88;;;12.60;99.90;;;;;;5055018;28;20036;-74
2023/04/23 05:45:27;;;;;;;5.60;4.50;;;12.60;99.90;;;;;;5067969;28;20069;-75
2023/04/23 05:47:53;;;;;;;6.07;4.53;;;12.60;99.90;;;;;;5045133;28;20052;-75
2023/04/23 05:50:20;;;;;;;5.78;4.60;;;12.60;99.90;;;;;;5054456;28;20431;-75
2023/04/23 05:52:46;;;;;;;5.82;4.60;;;12.60;99.90;;;;;;5071062;28;20033;-76
2023/04/23 05:55:14;;;;;;;5.72;4.13;;;12.60;99.90;;;;;;5053495;28;20040;-75
2023/04/23 05:57:40;;;;;;;7.18;4.60;;;12.70;99.90;;;;;;5070427;28;20490;-75
2023/04/23 06:00:13;;;;;;;5.90;4.60;;;12.70;99.90;;;;;;5071272;28;20036;-74
2023/04/23 06:02:39;;;;;;;7.20;4.53;;;12.70;99.90;;;;;;5068616;28;20036;-75
2023/04/23 06:05:06;;;;;;;7.97;4.75;;;12.70;99.90;;;;;;5070681;28;20029;-75
2023/04/23 06:07:32;;;;;;;6.40;4.18;;;12.70;99.90;;;;;;5052274;28;20036;-74
2023/04/23 06:09:59;;;;;;;6.60;4.65;;;12.70;99.90;;;;;;5068906;28;20036;-75
2023/04/23 06:12:25;;;;;;;8.68;4.25;;;12.70;99.90;;;;;;5070045;28;20036;-75
2023/04/23 06:14:54;;;;;;;5.95;4.13;;;12.70;99.90;;;;;;5070608;28;20032;-75
2023/04/23 06:17:20;;;;;;;6.10;4.43;;;12.80;99.90;;;;;;5052960;28;20028;-74
2023/04/23 06:19:46;;;;;;;5.03;3.70;;;12.90;99.90;;;;;;5071106;28;20482;-75
2023/04/23 06:22:12;;;;;;;5.32;3.67;;;13.00;99.90;;;;;;5070198;28;20028;-75
2023/04/23 06:24:38;;;;;;;4.70;3.70;;;13.00;99.90;;;;;;5053488;28;20036;-76
2023/04/23 06:27:04;;;;;;;7.43;3.88;;;13.00;99.90;;;;;;5071126;28;20028;-75
2023/04/23 06:29:31;;;;;;;4.82;3.88;;;13.10;99.90;;;;;;5069327;28;20043;-75
2023/04/23 06:32:00;;;;;;;6.82;4.45;;;13.20;99.90;;;;;;5070682;28;20395;-75
2023/04/23 06:34:26;;;;;;;5.70;4.43;;;13.20;99.90;;;;;;5070252;28;20021;-75
2023/04/23 06:36:52;;;;;;;6.07;4.57;;;13.30;99.90;;;;;;5071071;28;20036;-74
2023/04/23 06:39:18;;;;;;;5.43;4.80;;;13.20;99.90;;;;;;5069532;28;20071;-74
2023/04/23 06:41:44;;;;;;;5.30;4.80;;;13.30;99.90;;;;;;5070082;28;20032;-75
2023/04/23 06:44:10;;;;;;;6.38;4.70;;;13.30;99.90;;;;;;5071311;28;20399;-75
2023/04/23 06:46:37;;;;;;;7.78;5.20;;;13.40;99.90;;;;;;5070867;28;20035;-75
2023/04/23 06:49:03;;;;;;;7.38;4.72;;;13.40;99.90;;;;;;5069788;28;20045;-75
2023/04/23 06:51:30;;;;;;;6.53;4.20;;;13.40;99.90;;;;;;5070863;28;20052;-75
2023/04/23 06:53:57;;;;;;;5.13;4.63;;;13.40;99.90;;;;;;5070506;28;20025;-75
2023/04/23 06:56:24;;;;;;;4.95;4.45;;;13.40;99.90;;;;;;5073000;28;20036;-75
2023/04/23 06:58:50;;;;;;;5.22;4.40;;;13.40;99.90;;;;;;5072866;28;20035;-75
2023/04/23 07:01:17;;;;;;;4.55;4.15;;;13.50;99.90;;;;;;5073620;28;20048;-74
2023/04/23 07:03:47;;;;;;;5.43;4.55;;;13.50;99.90;;;;;;5072700;28;20044;-75
2023/04/23 07:06:16;;;;;;;7.22;4.60;;;13.50;99.90;;;;;;5069924;28;20487;-74
2023/04/23 07:08:44;;;;;;;5.35;4.28;;;13.60;99.90;;;;;;5072611;28;20043;-75
2023/04/23 07:11:10;;;;;;;9.38;4.47;;;13.70;99.90;;;;;;5073153;28;20035;-74
2023/04/23 07:13:37;;;;;;;7.10;4.75;;;13.60;99.90;;;;;;5056870;28;20028;-75
2023/04/23 07:16:03;;;;;;;7.07;3.95;;;13.70;99.90;;;;;;5072799;28;20032;-76
2023/04/23 07:18:29;;;;;;;7.50;3.83;;;13.80;99.90;;;;;;5070344;28;20024;-75
2023/04/23 07:20:55;;;;;;;7.63;3.88;;;13.70;99.90;;;;;;5073344;28;20055;-75
2023/04/23 07:23:21;;;;;;;5.30;3.58;;;13.70;99.90;;;;;;5071174;28;20032;-75
2023/04/23 07:25:47;;;;;;;8.55;3.83;;;13.80;99.90;;;;;;5072972;28;20032;-76
2023/04/23 07:28:13;;;;;;;6.60;3.40;;;13.80;99.90;;;;;;5072811;28;20044;-74
2023/04/23 07:30:39;;;;;;;4.28;3.10;;;13.80;99.90;;;;;;5072674;28;20028;-76
2023/04/23 07:33:05;;;;;;;6.28;3.03;;;13.80;99.90;;;;;;5051699;28;20479;-76
2023/04/23 07:35:32;;;;;;;6.63;3.10;;;13.90;99.90;;;;;;5062344;28;20033;-75
2023/04/23 07:37:58;;;;;;;11.50;2.75;;;13.90;99.90;;;;;;5073853;28;20032;-76
2023/04/23 07:40:24;;;;;;;4.72;2.78;;;13.90;99.90;;;;;;5055577;28;20052;-76
2023/04/23 07:42:50;;;;;;;6.50;3.17;;;13.90;99.90;;;;;;5073269;28;20024;-76
2023/04/23 07:45:17;;;;;;;6.60;2.88;;;13.90;99.90;;;;;;5055817;28;20033;-75
2023/04/23 07:47:45;;;;;;;7.15;2.78;;;13.90;99.90;;;;;;5070850;28;20430;-77
2023/04/23 07:50:11;;;;;;;9.38;2.88;;;13.90;99.90;;;;;;5071531;28;20040;-78
2023/04/23 07:52:37;;;;;;;7.88;3.00;;;13.80;99.90;;;;;;5041731;28;20407;-76
2023/04/23 07:55:04;;;;;;;8.45;2.65;;;13.80;99.90;;;;;;5070351;28;20048;-76
2023/04/23 07:57:30;;;;;;;5.68;2.42;;;13.70;99.90;;;;;;5055499;28;20032;-78
2023/04/23 07:59:56;;;;;;;4.15;2.80;;;13.70;99.90;;;;;;5072689;28;20044;-77
2023/04/23 08:02:24;;;;;;;2.75;2.20;;;13.70;99.90;;;;;;5070449;28;20063;-76
2023/04/23 08:04:51;;;;;;;11.95;2.60;;;13.70;99.90;;;;;;5071283;28;20045;-77
2023/04/23 08:07:18;;;;;;;4.20;2.25;;;13.60;99.90;;;;;;5072344;28;20036;-77
2023/04/23 08:09:44;;;;;;;7.70;2.85;;;13.50;99.90;;;;;;5069708;28;20033;-76
2023/04/23 08:12:10;;;;;;;8.27;2.33;;;13.50;99.90;;;;;;5072880;28;20025;-76
2023/04/23 08:14:36;;;;;;;7.32;2.40;;;13.60;99.90;;;;;;5072941;28;20033;-78
2023/04/23 08:17:02;;;;;;;9.70;2.60;;;13.50;99.90;;;;;;5071956;28;20033;-76
2023/04/23 08:19:32;;;;;;;5.13;2.35;;;13.50;99.90;;;;;;5070347;28;20040;-76
2023/04/23 08:21:58;;;;;;;5.85;2.70;;;13.50;99.90;;;;;;5055586;28;20051;-77
2023/04/23 08:24:25;;;;;;;5.40;2.70;;;13.40;99.90;;;;;;5070692;28;20040;-77
2023/04/23 08:26:52;;;;;;;6.03;2.65;;;13.40;99.90;;;;;;5073251;28;20028;-76
2023/04/23 08:29:18;;;;;;;5.82;2.83;;;13.60;99.90;;;;;;5072268;28;20040;-77
2023/04/23 08:31:44;;;;;;;6.57;3.10;;;13.60;99.90;;;;;;5072359;28;20044;-77
2023/04/23 08:34:10;;;;;;;4.72;2.63;;;13.80;99.90;;;;;;5073244;28;20025;-77
2023/04/23 08:36:36;;;;;;;7.72;3.97;;;14.00;99.90;;;;;;5072916;28;20039;-79
2023/04/23 08:39:03;;;;;;;4.63;3.17;;;14.10;99.90;;;;;;5071396;28;20024;-77
2023/04/23 08:41:41;;;;;;;3.63;2.60;;;14.20;99.90;;;;;;5071899;28;20029;-77
2023/04/23 08:44:17;;;;;;;2.30;2.20;;;14.30;99.90;;;;;;5071895;28;20039;-77
2023/04/23 08:46:44;;;;;;;5.75;2.55;;;14.30;99.90;;;;;;5071353;28;20043;-77
2023/04/23 08:49:15;;;;;;;2.80;2.50;;;14.30;99.90;;;;;;5072076;28;20043;-77
2023/04/23 08:52:05;;;;;;;2.90;2.70;;;14.40;99.90;;;;;;5054633;28;20044;-77
2023/04/23 08:54:31;;;;;;;3.08;2.80;;;14.60;99.90;;;;;;5053357;28;20833;-77
2023/04/23 08:56:57;;;;;;;2.20;2.00;;;14.60;99.90;;;;;;5053385;28;20044;-78
2023/04/23 08:59:29;;;;;;;2.30;2.13;;;14.70;99.90;;;;;;5068208;28;20052;-77
2023/04/23 09:01:55;;;;;;;2.15;1.90;;;14.60;99.90;;;;;;5066886;28;20036;-78
2023/04/23 09:04:22;;;;;;;3.50;2.17;;;14.60;99.90;;;;;;5069399;28;20032;-78
2023/04/23 09:06:48;;;;;;;2.42;2.22;;;14.60;99.90;;;;;;5071085;28;20035;-76
2023/04/23 09:09:15;;;;;;;3.47;3.20;;;14.60;99.90;;;;;;5070507;28;20032;-78
2023/04/23 09:11:41;;;;;;;2.30;2.20;;;14.60;99.90;;;;;;5053057;28;20033;-76
2023/04/23 09:14:07;;;;;;;2.60;2.40;;;14.60;99.90;;;;;;5053031;28;20032;-77
2023/04/23 09:16:34;;;;;;;2.55;2.30;;;14.80;99.90;;;;;;5052596;28;20398;-77
2023/04/23 09:19:00;;;;;;;2.13;2.00;;;15.00;99.90;;;;;;5069825;28;20028;-78
2023/04/23 09:21:26;;;;;;;2.22;2.13;;;15.00;99.90;;;;;;5048783;28;20383;-77
2023/04/23 09:23:52;;;;;;;2.10;2.00;;;15.10;99.90;;;;;;5068638;28;20041;-75
2023/04/23 09:26:20;;;;;;;2.53;2.17;;;15.30;99.90;;;;;;5053936;28;20373;-75
2023/04/23 09:28:52;;;;;;;4.28;2.80;;;15.50;99.90;;;;;;5070129;28;20025;-76
2023/04/23 09:31:20;;;;;;;2.92;2.40;;;15.60;99.90;;;;;;5069807;28;20039;-75
2023/04/23 09:33:51;;;;;;;2.85;2.63;;;15.60;99.90;;;;;;5068937;28;20024;-77
2023/04/23 09:36:20;;;;;;;2.70;2.50;;;15.50;99.90;;;;;;5070439;28;20028;-75
2023/04/23 09:38:46;;;;;;;2.50;2.30;;;15.50;99.90;;;;;;5071412;28;20033;-76
2023/04/23 09:41:23;;;;;;;2.60;2.40;;;15.70;99.90;;;;;;5070409;28;20064;-76
2023/04/23 09:43:49;;;;;;;3.72;2.55;;;15.80;99.90;;;;;;5068521;28;20028;-76
2023/04/23 09:46:15;;;;;;;4.97;3.00;;;15.70;99.90;;;;;;5066783;28;20028;-76
2023/04/23 09:48:42;;;;;;;2.67;2.40;;;15.80;99.90;;;;;;5065441;28;20131;-75
2023/04/23 09:51:08;;;;;;;3.08;2.60;;;15.70;99.90;;;;;;5068381;28;20039;-76
2023/04/23 09:53:42;;;;;;;3.95;2.70;;;15.70;99.90;;;;;;5067659;28;20021;-76
2023/04/23 09:56:08;;;;;;;5.63;2.80;;;15.80;99.90;;;;;;5067069;28;20391;-75
2023/04/23 09:58:34;;;;;;;4.63;2.90;;;15.90;99.90;;;;;;5067862;28;20031;-78
2023/04/23 10:01:07;;;;;;;6.65;3.20;;;16.00;99.90;;;;;;5069485;28;20040;-77
2023/04/23 10:03:33;;;;;;;7.30;2.90;;;16.10;99.90;;;;;;5067124;28;20410;-75
2023/04/23 10:06:00;;;;;;;5.10;3.28;;;16.20;99.90;;;;;;5070149;28;20378;-75
2023/04/23 10:08:26;;;;;;;5.32;2.88;;;16.30;99.90;;;;;;5053661;28;20024;-75
2023/04/23 10:10:52;;;;;;;5.60;2.75;;;16.40;99.90;;;;;;5049986;28;20035;-74
2023/04/23 10:13:18;;;;;;;5.85;3.50;;;16.60;99.90;;;;;;5068730;28;20033;-75
2023/04/23 10:15:47;;;;;;;5.15;3.15;;;16.90;99.90;;;;;;5070196;28;20032;-75
2023/04/23 10:18:13;;;;;;;4.30;2.85;;;17.20;99.90;;;;;;5068785;28;20564;-75
2023/04/23 10:20:40;;;;;;;4.85;2.90;;;17.40;99.90;;;;;;5064745;28;20044;-75
2023/04/23 10:23:08;;;;;;;4.20;3.10;;;17.40;99.90;;;;;;5068168;28;20486;-75
2023/04/23 10:25:35;;;;;;;7.43;2.75;;;17.40;99.90;;;;;;5069851;28;20044;-74
2023/04/23 10:28:02;;;;;;;5.43;3.08;;;17.40;99.90;;;;;;5068495;28;20024;-75
2023/04/23 10:30:28;;;;;;;8.43;3.50;;;17.40;99.90;;;;;;5070679;28;20036;-75
2023/04/23 10:32:54;;;;;;;7.75;3.45;;;17.40;99.90;;;;;;5071705;28;20073;-75
2023/04/23 10:35:20;;;;;;;4.65;3.42;;;17.30;99.90;;;;;;5070534;28;20035;-76
2023/04/23 10:37:46;;;;;;;4.13;2.70;;;17.30;99.90;;;;;;5072783;28;20059;-75
2023/04/23 10:40:13;;;;;;;7.70;3.30;;;17.30;99.90;;;;;;5055582;28;20059;-75
2023/04/23 10:42:40;;;;;;;6.50;3.45;;;17.30;99.90;;;;;;5071144;28;20035;-75
2023/04/23 10:45:19;;;;;;;4.80;3.53;;;17.30;99.90;;;;;;5071744;28;20035;-76
2023/04/23 10:47:45;;;;;;;6.47;2.97;;;17.20;99.90;;;;;;5067013;28;20032;-75
2023/04/23 10:50:28;;;;;;;6.45;3.00;;;17.30;99.90;;;;;;5048013;28;20040;-76
2023/04/23 10:52:55;;;;;;;4.82;2.75;;;17.40;99.90;;;;;;5062696;28;20045;-76
2023/04/23 10:55:23;;;;;;;5.68;3.60;;;17.30;99.90;;;;;;5061655;28;20028;-75
2023/04/23 10:57:57;;;;;;;3.63;3.00;;;17.20;99.90;;;;;;5068827;28;20028;-75
2023/04/23 11:00:25;;;;;;;8.18;3.63;;;17.10;99.90;;;;;;5064131;28;20037;-76
2023/04/23 11:02:52;;;;;;;6.70;3.38;;;17.10;99.90;;;;;;5055630;28;20040;-76
2023/04/23 11:05:18;;;;;;;9.63;3.40;;;17.10;99.90;;;;;;5073603;28;20420;-75
2023/04/23 11:08:04;;;;;;;7.00;3.33;;;17.10;99.90;;;;;;5055387;28;20043;-76
2023/04/23 11:10:31;;;;;;;4.22;3.03;;;17.20;99.90;;;;;;5054983;28;20020;-76
2023/04/23 11:12:57;;;;;;;3.92;3.08;;;17.40;99.90;;;;;;5055901;28;20467;-75
2023/04/23 11:15:24;;;;;;;5.40;3.50;;;17.50;99.90;;;;;;5073013;28;20525;-76
2023/04/23 11:17:57;;;;;;;6.65;3.47;;;17.50;99.90;;;;;;5071037;28;20042;-75
2023/04/23 11:20:23;;;;;;;6.68;2.70;;;17.40;99.90;;;;;;5070262;28;20032;-75
2023/04/23 11:22:50;;;;;;;5.53;3.13;;;17.30;99.90;;;;;;5071881;28;20025;-75
2023/04/23 11:25:34;;;;;;;8.18;3.17;;;17.20;99.90;;;;;;5037425;28;20491;-75
2023/04/23 11:28:00;;;;;;;6.13;3.83;;;17.10;99.90;;;;;;5037182;28;20391;-76
2023/04/23 11:30:29;;;;;;;6.40;3.00;;;16.80;99.90;;;;;;5058734;28;20119;-75
2023/04/23 11:32:56;;;;;;;5.22;2.60;;;16.70;99.90;;;;;;5065548;28;20032;-74
2023/04/23 11:35:36;;;;;;;6.50;2.97;;;16.60;99.90;;;;;;5052502;28;20029;-75
2023/04/23 11:38:09;;;;;;;6.65;2.85;;;16.30;99.90;;;;;;5069090;28;20036;-75
2023/04/23 11:40:36;;;;;;;9.52;3.58;;;16.20;99.90;;;;;;5060254;28;20045;-75
2023/04/23 11:43:03;;;;;;;8.13;3.55;;;16.30;99.90;;;;;;5063950;28;20039;-75
2023/04/23 11:45:29;;;;;;;5.82;3.38;;;16.30;99.90;;;;;;5068014;28;20048;-75
2023/04/23 11:47:57;;;;;;;9.27;3.65;;;16.10;99.90;;;;;;5068096;28;20414;-80
2023/04/23 11:50:28;;;;;;;8.07;4.50;;;15.70;99.90;;;;;;5069407;28;20036;-72
2023/04/23 11:52:54;;;;;;;8.25;4.60;;;15.50;99.90;;;;;;5071106;28;20517;-68
2023/04/23 11:55:21;;;;;;;9.40;4.30;;;15.70;99.90;;;;;;5054665;28;20035;-74
2023/04/23 11:57:49;;;;;;;9.45;3.95;;;16.00;99.90;;;;;;5054070;28;20020;-74
2023/04/23 12:00:17;;;;;;;9.68;3.75;;;16.30;99.90;;;;;;5070089;28;20390;-73
2023/04/23 12:02:50;;;;;;;10.68;4.10;;;16.60;99.90;;;;;;5070969;28;20372;-74
2023/04/23 12:05:36;;;;;;;11.63;4.03;;;16.80;99.90;;;;;;5073178;28;20486;-74
2023/04/23 12:08:20;;;;;;;10.95;3.70;;;16.90;99.90;;;;;;5070075;28;20036;-74
2023/04/23 12:10:51;;;;;;;17.92;3.83;;;17.00;99.90;;;;;;5072421;28;20032;-74
2023/04/23 12:13:22;;;;;;;10.95;3.15;;;17.10;99.90;;;;;;5072757;28;20032;-74
2023/04/23 12:15:50;;;;;;;5.70;3.80;;;17.30;99.90;;;;;;5071493;28;20043;-74
2023/04/23 12:18:16;;;;;;;6.75;3.80;;;17.50;99.90;;;;;;5070156;28;20028;-73
2023/04/23 12:20:43;;;;;;;6.53;3.92;;;17.60;99.90;;;;;;5070771;28;20071;-74
2023/04/23 12:23:09;;;;;;;11.00;4.00;;;17.80;99.90;;;;;;5070125;28;20467;-74
2023/04/23 12:25:36;;;;;;;8.57;3.88;;;17.80;99.90;;;;;;5072526;28;20390;-73
2023/04/23 12:28:03;;;;;;;10.93;4.20;;;17.90;99.90;;;;;;5070840;28;20029;-74
2023/04/23 12:30:32;;;;;;;9.82;4.18;;;18.00;99.90;;;;;;5072655;28;20505;-74
2023/04/23 12:32:59;;;;;;;6.28;3.75;;;18.20;99.90;;;;;;5053690;28;20390;-74
2023/04/23 12:35:41;;;;;;;8.68;4.57;;;18.30;99.90;;;;;;5070299;28;20032;-74
2023/04/23 12:38:08;;;;;;;10.43;4.82;;;18.40;99.90;;;;;;5070727;28;20032;-74
2023/04/23 12:40:34;;;;;;;7.78;3.85;;;18.40;99.90;;;;;;5070552;28;20039;-74
2023/04/23 12:43:00;;;;;;;7.60;4.28;;;18.40;99.90;;;;;;5070962;28;20035;-73